createdAt,value
2019-04-14T00:00:20.790Z,16.21
2019-04-14T00:01:19.969Z,16.11
2019-04-14T00:02:20.687Z,16.21
2019-04-14T00:03:19.963Z,16.31
2019-04-14T00:04:20.344Z,16.21
2019-04-14T00:05:21.005Z,16.21
2019-04-14T00:06:20.249Z,16.21
2019-04-14T00:07:20.880Z,16.21
2019-04-14T00:08:19.976Z,16.31
2019-04-14T00:09:20.567Z,16.11
2019-04-14T00:10:20.392Z,16.31
2019-04-14T00:11:21.157Z,16.21
2019-04-14T00:12:20.855Z,16.31
2019-04-14T00:13:20.003Z,16.31
2019-04-14T00:14:20.794Z,16.21
2019-04-14T00:15:29.466Z,16.21
2019-04-14T00:16:20.644Z,15.82
2019-04-14T00:17:19.997Z,15.72
2019-04-14T00:18:20.829Z,15.82
2019-04-14T00:19:20.026Z,16.31
2019-04-14T00:20:20.723Z,16.11
2019-04-14T00:21:20.019Z,16.21
2019-04-14T00:22:20.545Z,16.21
2019-04-14T00:23:20.013Z,16.41
2019-04-14T00:24:20.622Z,16.21
2019-04-14T00:25:20.018Z,16.11
2019-04-14T00:26:20.497Z,15.82
2019-04-14T00:27:20.022Z,16.31
2019-04-14T00:28:20.663Z,16.31
2019-04-14T00:29:20.030Z,16.11
2019-04-14T00:30:20.816Z,16.21
2019-04-14T00:31:20.033Z,16.31
2019-04-14T00:32:20.490Z,16.41
2019-04-14T00:33:21.318Z,16.21
2019-04-14T00:34:20.321Z,16.21
2019-04-14T00:35:21.019Z,16.31
2019-04-14T00:36:20.044Z,15.82
2019-04-14T00:37:20.520Z,16.11
2019-04-14T00:38:20.049Z,15.72
2019-04-14T00:39:20.477Z,15.72
2019-04-14T00:40:20.057Z,15.72
2019-04-14T00:41:20.208Z,15.72
2019-04-14T00:42:21.167Z,15.92
2019-04-14T00:43:20.063Z,15.72
2019-04-14T00:44:21.035Z,15.72
2019-04-14T00:45:32.157Z,15.72
2019-04-14T00:46:21.160Z,15.82
2019-04-14T00:47:20.123Z,16.31
2019-04-14T00:48:21.456Z,15.82
2019-04-14T00:49:20.078Z,15.72
2019-04-14T00:50:21.112Z,16.21
2019-04-14T00:51:20.085Z,15.92
2019-04-14T00:52:21.188Z,15.72
2019-04-14T00:53:20.717Z,15.92
2019-04-14T00:54:20.092Z,15.82
2019-04-14T00:55:20.483Z,15.82
2019-04-14T00:56:20.101Z,15.72
2019-04-14T00:57:20.195Z,15.72
2019-04-14T00:58:21.380Z,15.92
2019-04-14T00:59:20.154Z,15.92
2019-04-14T01:00:20.741Z,16.31
2019-04-14T01:01:20.159Z,15.72
2019-04-14T01:02:21.106Z,15.82
2019-04-14T01:03:20.116Z,15.72
2019-04-14T01:04:20.856Z,15.82
2019-04-14T01:05:20.127Z,15.72
2019-04-14T01:06:20.789Z,15.72
2019-04-14T01:07:20.123Z,15.82
2019-04-14T01:08:20.592Z,15.72
2019-04-14T01:09:20.188Z,15.72
2019-04-14T01:10:21.305Z,16.02
2019-04-14T01:11:20.366Z,15.82
2019-04-14T01:12:21.137Z,15.92
2019-04-14T01:13:20.181Z,15.72
2019-04-14T01:14:21.187Z,15.72
2019-04-14T01:15:20.161Z,15.92
2019-04-14T01:16:23.303Z,15.72
2019-04-14T01:17:20.146Z,15.92
2019-04-14T01:18:21.238Z,16.02
2019-04-14T01:19:20.153Z,15.92
2019-04-14T01:20:21.090Z,15.72
2019-04-14T01:21:20.215Z,15.82
2019-04-14T01:22:20.618Z,15.92
2019-04-14T01:23:21.445Z,15.92
2019-04-14T01:24:20.681Z,15.82
2019-04-14T01:25:21.444Z,15.72
2019-04-14T01:26:20.393Z,15.92
2019-04-14T01:27:21.096Z,15.92
2019-04-14T01:28:20.177Z,15.82
2019-04-14T01:29:20.948Z,16.02
2019-04-14T01:30:20.190Z,15.92
2019-04-14T01:31:20.638Z,15.92
2019-04-14T01:32:20.187Z,15.82
2019-04-14T01:33:20.681Z,15.82
2019-04-14T01:34:20.196Z,16.02
2019-04-14T01:35:20.358Z,15.72
2019-04-14T01:36:21.271Z,15.82
2019-04-14T01:37:20.216Z,15.82
2019-04-14T01:38:21.196Z,15.72
2019-04-14T01:39:20.207Z,15.82
2019-04-14T01:40:20.701Z,15.92
2019-04-14T01:41:20.208Z,15.82
2019-04-14T01:42:20.350Z,15.72
2019-04-14T01:43:21.271Z,15.92
2019-04-14T01:44:20.215Z,15.72
2019-04-14T01:45:21.090Z,15.82
2019-04-14T01:46:24.649Z,15.72
2019-04-14T01:47:20.542Z,15.82
2019-04-14T01:48:21.221Z,15.82
2019-04-14T01:49:20.395Z,15.92
2019-04-14T01:50:21.265Z,15.92
2019-04-14T01:51:20.342Z,15.82
2019-04-14T01:52:20.985Z,15.82
2019-04-14T01:53:20.756Z,16.02
2019-04-14T01:54:21.329Z,15.72
2019-04-14T01:55:20.242Z,15.92
2019-04-14T01:56:20.890Z,15.92
2019-04-14T01:57:20.249Z,15.72
2019-04-14T01:58:20.749Z,16.02
2019-04-14T01:59:20.253Z,15.72
2019-04-14T02:00:20.773Z,16.02
2019-04-14T02:01:20.258Z,15.92
2019-04-14T02:02:20.579Z,15.82
2019-04-14T02:03:20.263Z,15.92
2019-04-14T02:04:20.394Z,15.92
2019-04-14T02:05:21.409Z,15.92
2019-04-14T02:06:20.279Z,15.72
2019-04-14T02:07:21.203Z,15.72
2019-04-14T02:08:20.278Z,15.92
2019-04-14T02:09:20.844Z,15.92
2019-04-14T02:10:21.561Z,15.72
2019-04-14T02:11:20.633Z,15.72
2019-04-14T02:12:21.411Z,15.92
2019-04-14T02:13:20.420Z,15.72
2019-04-14T02:14:21.180Z,15.82
2019-04-14T02:15:20.292Z,16.02
2019-04-14T02:16:29.286Z,15.82
2019-04-14T02:17:20.305Z,15.82
2019-04-14T02:18:20.874Z,16.02
2019-04-14T02:19:20.303Z,15.72
2019-04-14T02:20:20.722Z,15.82
2019-04-14T02:21:21.522Z,15.92
2019-04-14T02:22:20.353Z,16.02
2019-04-14T02:23:21.420Z,15.82
2019-04-14T02:24:20.335Z,15.82
2019-04-14T02:25:21.014Z,15.72
2019-04-14T02:26:20.321Z,15.92
2019-04-14T02:27:21.020Z,15.82
2019-04-14T02:28:20.327Z,15.82
2019-04-14T02:29:21.190Z,15.92
2019-04-14T02:30:26.329Z,15.82
2019-04-14T02:31:39.418Z,15.72
2019-04-14T02:32:54.970Z,15.72
2019-04-14T02:33:44.232Z,15.72
2019-04-14T02:35:02.129Z,15.72
2019-04-14T02:35:55.887Z,15.82
2019-04-14T02:36:50.667Z,15.92
2019-04-14T02:39:53.678Z,15.92
2019-04-14T02:41:07.344Z,15.82
2019-04-14T02:42:07.165Z,15.92
2019-04-14T02:42:46.389Z,15.92
2019-04-14T02:43:52.336Z,15.92
2019-04-14T02:44:51.877Z,15.92
2019-04-14T02:45:52.107Z,15.82
2019-04-14T02:47:04.103Z,15.72
2019-04-14T02:48:52.832Z,15.92
2019-04-14T02:50:51.487Z,15.72
2019-04-14T02:52:53.758Z,15.72
2019-04-14T02:53:49.681Z,15.92
2019-04-14T02:54:51.841Z,15.92
2019-04-14T02:55:49.132Z,15.82
2019-04-14T02:56:43.386Z,15.72
2019-04-14T02:57:47.645Z,15.82
2019-04-14T02:58:58.403Z,15.72
2019-04-14T03:01:01.815Z,15.92
2019-04-14T03:02:09.932Z,15.92
2019-04-14T03:02:44.707Z,15.92
2019-04-14T03:03:43.627Z,15.72
2019-04-14T03:04:50.963Z,15.92
2019-04-14T03:06:50.427Z,15.92
2019-04-14T03:07:46.247Z,15.72
2019-04-14T03:08:51.222Z,15.92
2019-04-14T03:09:58.608Z,15.82
2019-04-14T03:10:49.771Z,15.92
2019-04-14T03:11:45.896Z,15.82
2019-04-14T03:12:46.454Z,15.92
2019-04-14T03:13:51.454Z,15.92
2019-04-14T03:14:47.463Z,15.82
2019-04-14T03:15:47.850Z,16.02
2019-04-14T03:16:53.977Z,15.92
2019-04-14T03:17:47.226Z,15.82
2019-04-14T03:18:44.382Z,15.92
2019-04-14T03:19:55.045Z,15.92
2019-04-14T03:20:40.085Z,15.92
2019-04-14T03:22:49.802Z,15.92
2019-04-14T03:23:48.721Z,15.92
2019-04-14T03:24:37.563Z,15.92
2019-04-14T03:25:41.043Z,15.92
2019-04-14T03:26:50.265Z,15.92
2019-04-14T03:27:47.844Z,15.92
2019-04-14T03:29:43.358Z,15.92
2019-04-14T03:32:02.468Z,15.92
2019-04-14T03:34:17.755Z,15.72
2019-04-14T03:34:59.226Z,15.82
2019-04-14T03:36:17.039Z,15.92
2019-04-14T03:37:51.086Z,15.82
2019-04-14T03:39:06.088Z,15.92
2019-04-14T03:41:45.609Z,15.82
2019-04-14T03:42:54.177Z,15.82
2019-04-14T03:43:41.423Z,15.82
2019-04-14T03:44:56.219Z,15.92
2019-04-14T03:45:51.580Z,15.92
2019-04-14T03:48:05.779Z,15.82
2019-04-14T03:49:44.627Z,16.02
2019-04-14T03:50:47.861Z,15.92
2019-04-14T03:51:58.012Z,15.82
2019-04-14T03:52:50.062Z,15.92
2019-04-14T03:53:39.960Z,15.82
2019-04-14T03:54:42.983Z,15.92
2019-04-14T03:55:31.802Z,15.92
2019-04-14T03:56:21.640Z,15.82
2019-04-14T03:57:21.507Z,15.92
2019-04-14T03:58:20.655Z,15.82
2019-04-14T03:59:21.664Z,15.92
2019-04-14T04:00:20.555Z,15.92
2019-04-14T04:01:21.510Z,15.82
2019-04-14T04:02:20.571Z,15.92
2019-04-14T04:03:21.675Z,15.92
2019-04-14T04:04:20.699Z,15.82
2019-04-14T04:05:21.573Z,15.92
2019-04-14T04:06:20.570Z,15.82
2019-04-14T04:07:21.430Z,15.92
2019-04-14T04:08:20.575Z,15.92
2019-04-14T04:09:21.450Z,15.82
2019-04-14T04:10:21.129Z,15.92
2019-04-14T04:11:21.469Z,15.82
2019-04-14T04:12:20.587Z,15.82
2019-04-14T04:13:21.571Z,15.92
2019-04-14T04:14:20.592Z,15.72
2019-04-14T04:15:21.398Z,15.72
2019-04-14T04:16:20.595Z,15.82
2019-04-14T04:17:21.205Z,15.92
2019-04-14T04:18:20.600Z,15.92
2019-04-14T04:19:21.252Z,15.92
2019-04-14T04:20:21.699Z,15.82
2019-04-14T04:21:20.741Z,15.82
2019-04-14T04:22:21.526Z,15.92
2019-04-14T04:23:20.621Z,15.92
2019-04-14T04:24:21.325Z,15.72
2019-04-14T04:25:20.620Z,15.82
2019-04-14T04:26:21.197Z,16.02
2019-04-14T04:27:20.623Z,15.92
2019-04-14T04:28:20.975Z,15.92
2019-04-14T04:29:20.628Z,15.92
2019-04-14T04:30:20.891Z,15.72
2019-04-14T04:31:20.651Z,15.92
2019-04-14T04:32:20.839Z,15.92
2019-04-14T04:33:20.641Z,15.82
2019-04-14T04:34:20.643Z,15.82
2019-04-14T04:35:21.709Z,15.92
2019-04-14T04:36:20.646Z,15.92
2019-04-14T04:37:21.403Z,15.82
2019-04-14T04:38:20.650Z,15.92
2019-04-14T04:39:21.423Z,15.92
2019-04-14T04:40:20.656Z,15.92
2019-04-14T04:41:21.033Z,15.82
2019-04-14T04:42:21.852Z,15.92
2019-04-14T04:43:21.135Z,15.82
2019-04-14T04:44:20.665Z,15.82
2019-04-14T04:45:21.357Z,15.92
2019-04-14T04:46:21.938Z,15.82
2019-04-14T04:47:20.946Z,16.02
2019-04-14T04:48:21.680Z,15.82
2019-04-14T04:49:24.387Z,16.02
2019-04-14T04:50:21.368Z,15.82
2019-04-14T04:51:20.686Z,15.72
2019-04-14T04:52:21.257Z,15.92
2019-04-14T04:53:20.689Z,15.92
2019-04-14T04:54:21.076Z,15.82
2019-04-14T04:55:21.955Z,15.92
2019-04-14T04:56:20.871Z,15.72
2019-04-14T04:57:21.770Z,15.92
2019-04-14T04:58:21.614Z,15.92
2019-04-14T04:59:21.291Z,15.92
2019-04-14T05:00:20.713Z,15.72
2019-04-14T05:01:21.002Z,15.82
2019-04-14T05:02:21.974Z,16.02
2019-04-14T05:03:21.113Z,15.92
2019-04-14T05:04:21.733Z,15.82
2019-04-14T05:05:20.987Z,15.92
2019-04-14T05:06:22.326Z,16.02
2019-04-14T05:07:20.935Z,15.72
2019-04-14T05:08:21.683Z,15.92
2019-04-14T05:09:21.008Z,15.92
2019-04-14T05:10:21.717Z,15.92
2019-04-14T05:11:20.972Z,15.82
2019-04-14T05:12:21.697Z,15.92
2019-04-14T05:13:20.740Z,15.92
2019-04-14T05:14:21.591Z,15.72
2019-04-14T05:15:20.742Z,15.72
2019-04-14T05:16:21.437Z,15.72
2019-04-14T05:17:21.227Z,15.92
2019-04-14T05:18:22.098Z,16.02
2019-04-14T05:19:28.004Z,15.92
2019-04-14T05:20:20.755Z,15.82
2019-04-14T05:21:21.425Z,15.92
2019-04-14T05:22:21.214Z,15.92
2019-04-14T05:23:21.346Z,15.82
2019-04-14T05:24:20.766Z,15.92
2019-04-14T05:25:21.646Z,15.92
2019-04-14T05:26:21.981Z,16.02
2019-04-14T05:27:21.107Z,15.92
2019-04-14T05:28:21.937Z,15.82
2019-04-14T05:29:21.105Z,15.92
2019-04-14T05:30:21.870Z,15.92
2019-04-14T05:31:20.843Z,15.82
2019-04-14T05:32:21.619Z,16.02
2019-04-14T05:33:20.822Z,15.92
2019-04-14T05:34:21.558Z,15.92
2019-04-14T05:35:20.793Z,15.92
2019-04-14T05:36:21.474Z,15.82
2019-04-14T05:37:20.799Z,15.92
2019-04-14T05:38:21.189Z,15.92
2019-04-14T05:39:21.999Z,15.72
2019-04-14T05:40:21.092Z,15.92
2019-04-14T05:41:20.808Z,15.92
2019-04-14T05:42:25.143Z,15.92
2019-04-14T05:43:30.198Z,15.92
2019-04-14T05:44:20.865Z,15.92
2019-04-14T05:45:21.924Z,16.02
2019-04-14T05:46:20.825Z,15.92
2019-04-14T05:47:21.816Z,15.92
2019-04-14T05:48:20.827Z,15.72
2019-04-14T05:49:31.506Z,15.92
2019-04-14T05:50:20.833Z,15.72
2019-04-14T05:51:23.156Z,15.72
2019-04-14T05:52:20.837Z,15.82
2019-04-14T05:53:21.836Z,15.82
2019-04-14T05:54:20.843Z,15.82
2019-04-14T05:55:21.926Z,16.02
2019-04-14T05:56:20.851Z,15.92
2019-04-14T05:57:21.913Z,15.72
2019-04-14T05:58:20.851Z,15.82
2019-04-14T05:59:21.971Z,15.82
2019-04-14T06:00:21.215Z,15.72
2019-04-14T06:01:20.858Z,15.82
2019-04-14T06:02:20.861Z,15.82
2019-04-14T06:03:21.291Z,15.72
2019-04-14T06:04:22.122Z,15.82
2019-04-14T06:05:21.191Z,15.92
2019-04-14T06:06:20.875Z,15.82
2019-04-14T06:07:20.873Z,15.82
2019-04-14T06:08:20.879Z,15.72
2019-04-14T06:09:20.879Z,15.92
2019-04-14T06:10:20.881Z,16.31
2019-04-14T06:11:20.933Z,15.72
2019-04-14T06:12:20.891Z,15.72
2019-04-14T06:13:20.889Z,15.82
2019-04-14T06:14:20.893Z,15.72
2019-04-14T06:15:20.896Z,15.72
2019-04-14T06:16:20.951Z,15.72
2019-04-14T06:17:20.900Z,16.31
2019-04-14T06:18:20.950Z,16.31
2019-04-14T06:19:20.905Z,16.31
2019-04-14T06:20:20.905Z,16.31
2019-04-14T06:21:20.914Z,16.11
2019-04-14T06:22:20.913Z,15.82
2019-04-14T06:23:20.914Z,16.31
2019-04-14T06:24:20.921Z,16.21
2019-04-14T06:25:20.921Z,16.21
2019-04-14T06:26:20.922Z,16.31
2019-04-14T06:27:20.925Z,15.82
2019-04-14T06:28:20.927Z,16.41
2019-04-14T06:29:20.929Z,16.11
2019-04-14T06:30:20.932Z,16.21
2019-04-14T06:31:20.932Z,16.21
2019-04-14T06:32:20.957Z,16.31
2019-04-14T06:33:20.939Z,16.11
2019-04-14T06:34:20.942Z,16.21
2019-04-14T06:35:20.944Z,16.21
2019-04-14T06:36:20.946Z,16.11
2019-04-14T06:37:20.951Z,16.11
2019-04-14T06:38:20.952Z,16.21
2019-04-14T06:39:20.953Z,16.11
2019-04-14T06:40:20.956Z,16.11
2019-04-14T06:41:20.959Z,16.11
2019-04-14T06:42:20.963Z,16.21
2019-04-14T06:43:20.963Z,16.31
2019-04-14T06:44:20.964Z,16.21
2019-04-14T06:45:20.975Z,16.31
2019-04-14T06:46:20.971Z,16.31
2019-04-14T06:47:20.975Z,16.31
2019-04-14T06:48:20.978Z,16.31
2019-04-14T06:49:20.980Z,16.31
2019-04-14T06:50:20.982Z,16.31
2019-04-14T06:51:20.983Z,16.21
2019-04-14T06:52:20.987Z,16.21
2019-04-14T06:53:20.993Z,16.21
2019-04-14T06:54:20.994Z,16.21
2019-04-14T06:55:20.994Z,16.21
2019-04-14T06:56:21.006Z,16.21
2019-04-14T06:57:20.997Z,16.31
2019-04-14T06:58:21.005Z,16.21
2019-04-14T06:59:21.006Z,16.21
2019-04-14T07:00:21.008Z,16.21
2019-04-14T07:01:21.018Z,16.21
2019-04-14T07:02:21.012Z,16.11
2019-04-14T07:03:21.013Z,16.21
2019-04-14T07:04:21.021Z,16.21
2019-04-14T07:05:21.018Z,16.21
2019-04-14T07:06:21.029Z,16.21
2019-04-14T07:07:21.024Z,16.21
2019-04-14T07:08:21.037Z,16.11
2019-04-14T07:09:21.030Z,16.11
2019-04-14T07:10:21.030Z,16.21
2019-04-14T07:11:21.034Z,16.21
2019-04-14T07:12:21.035Z,16.11
2019-04-14T07:13:21.039Z,16.20
2019-04-14T07:14:21.042Z,16.21
2019-04-14T07:15:21.041Z,16.11
2019-04-14T07:16:21.046Z,16.21
2019-04-14T07:17:21.048Z,16.11
2019-04-14T07:18:21.051Z,16.11
2019-04-14T07:19:21.053Z,16.11
2019-04-14T07:20:21.057Z,16.11
2019-04-14T07:21:21.108Z,16.21
2019-04-14T07:22:21.060Z,16.21
2019-04-14T07:23:21.067Z,16.02
2019-04-14T07:24:21.066Z,15.92
2019-04-14T07:25:21.068Z,16.02
2019-04-14T07:26:21.071Z,16.11
2019-04-14T07:27:21.073Z,16.11
2019-04-14T07:28:21.078Z,16.02
2019-04-14T07:29:21.086Z,16.11
2019-04-14T07:30:21.081Z,16.20
2019-04-14T07:31:21.082Z,16.11
2019-04-14T07:32:21.090Z,16.11
2019-04-14T07:33:21.092Z,16.21
2019-04-14T07:34:21.093Z,16.02
2019-04-14T07:35:21.097Z,16.21
2019-04-14T07:36:21.096Z,16.02
2019-04-14T07:37:21.099Z,16.02
2019-04-14T07:38:21.104Z,16.02
2019-04-14T07:39:21.104Z,16.21
2019-04-14T07:40:21.105Z,16.11
2019-04-14T07:41:21.108Z,16.02
2019-04-14T07:42:21.111Z,16.21
2019-04-14T07:43:21.112Z,16.11
2019-04-14T07:44:21.130Z,16.21
2019-04-14T07:45:21.119Z,16.21
2019-04-14T07:46:21.133Z,16.11
2019-04-14T07:47:21.121Z,16.11
2019-04-14T07:48:21.127Z,16.21
2019-04-14T07:49:21.128Z,16.21
2019-04-14T07:50:21.131Z,15.92
2019-04-14T07:51:21.149Z,16.02
2019-04-14T07:52:21.135Z,16.11
2019-04-14T07:53:21.137Z,16.02
2019-04-14T07:54:21.196Z,15.92
2019-04-14T07:55:21.143Z,16.21
2019-04-14T07:56:21.144Z,16.02
2019-04-14T07:57:21.148Z,16.11
2019-04-14T07:58:21.151Z,16.11
2019-04-14T07:59:21.153Z,16.11
2019-04-14T08:00:21.154Z,16.11
2019-04-14T08:01:21.157Z,16.02
2019-04-14T08:02:21.160Z,15.92
2019-04-14T08:03:21.163Z,16.02
2019-04-14T08:04:21.167Z,16.21
2019-04-14T08:05:21.165Z,16.11
2019-04-14T08:06:21.173Z,16.02
2019-04-14T08:07:21.173Z,16.11
2019-04-14T08:08:21.176Z,16.21
2019-04-14T08:09:21.179Z,16.02
2019-04-14T08:10:21.181Z,16.02
2019-04-14T08:11:21.234Z,15.92
2019-04-14T08:12:21.187Z,16.21
2019-04-14T08:13:21.190Z,15.92
2019-04-14T08:14:21.191Z,16.21
2019-04-14T08:15:21.192Z,16.11
2019-04-14T08:16:21.192Z,15.92
2019-04-14T08:17:21.198Z,16.11
2019-04-14T08:18:21.201Z,16.02
2019-04-14T08:19:21.200Z,16.11
2019-04-14T08:20:27.428Z,16.02
2019-04-14T08:21:21.206Z,16.11
2019-04-14T08:22:21.211Z,16.11
2019-04-14T08:23:21.213Z,16.11
2019-04-14T08:24:21.216Z,16.11
2019-04-14T08:25:21.217Z,16.02
2019-04-14T08:26:21.220Z,16.11
2019-04-14T08:27:21.222Z,16.11
2019-04-14T08:28:21.528Z,16.02
2019-04-14T08:29:21.228Z,15.92
2019-04-14T08:30:21.231Z,16.02
2019-04-14T08:31:21.318Z,16.02
2019-04-14T08:32:21.240Z,15.92
2019-04-14T08:33:21.238Z,15.92
2019-04-14T08:34:21.241Z,16.02
2019-04-14T08:35:21.244Z,15.92
2019-04-14T08:36:21.244Z,15.92
2019-04-14T08:37:21.249Z,15.92
2019-04-14T08:38:21.251Z,16.02
2019-04-14T08:39:21.253Z,15.82
2019-04-14T08:40:21.255Z,15.92
2019-04-14T08:41:21.260Z,15.92
2019-04-14T08:42:21.261Z,15.92
2019-04-14T08:43:21.262Z,15.92
2019-04-14T08:44:21.264Z,15.92
2019-04-14T08:45:21.268Z,15.92
2019-04-14T08:46:21.290Z,15.92
2019-04-14T08:47:21.272Z,15.92
2019-04-14T08:48:21.274Z,15.82
2019-04-14T08:49:21.278Z,15.92
2019-04-14T08:50:21.278Z,15.92
2019-04-14T08:51:21.284Z,15.92
2019-04-14T08:52:23.953Z,15.92
2019-04-14T08:53:21.288Z,15.82
2019-04-14T08:54:21.291Z,15.92
2019-04-14T08:55:21.292Z,15.92
2019-04-14T08:56:21.299Z,15.92
2019-04-14T08:57:21.298Z,15.92
2019-04-14T08:58:21.300Z,15.82
2019-04-14T08:59:21.303Z,15.82
2019-04-14T09:00:21.304Z,15.92
2019-04-14T09:01:21.313Z,16.02
2019-04-14T09:02:21.310Z,15.92
2019-04-14T09:03:21.318Z,15.92
2019-04-14T09:04:21.311Z,15.92
2019-04-14T09:05:21.317Z,15.82
2019-04-14T09:06:21.324Z,15.82
2019-04-14T09:07:21.321Z,15.92
2019-04-14T09:08:21.324Z,15.92
2019-04-14T09:09:21.326Z,15.82
2019-04-14T09:10:21.330Z,16.11
2019-04-14T09:11:21.330Z,16.02
2019-04-14T09:12:21.334Z,16.21
2019-04-14T09:13:21.341Z,15.92
2019-04-14T09:14:21.340Z,16.02
2019-04-14T09:15:21.343Z,16.02
2019-04-14T09:16:21.343Z,16.11
2019-04-14T09:17:21.347Z,15.82
2019-04-14T09:18:21.348Z,16.21
2019-04-14T09:19:21.351Z,15.92
2019-04-14T09:20:21.355Z,15.92
2019-04-14T09:21:21.356Z,16.31
2019-04-14T09:22:21.359Z,15.82
2019-04-14T09:23:21.359Z,16.21
2019-04-14T09:24:21.366Z,16.21
2019-04-14T09:25:21.367Z,16.02
2019-04-14T09:26:21.369Z,15.92
2019-04-14T09:27:21.379Z,15.92
2019-04-14T09:28:21.380Z,16.02
2019-04-14T09:29:21.380Z,16.02
2019-04-14T09:30:21.382Z,16.02
2019-04-14T09:31:21.384Z,15.82
2019-04-14T09:32:21.383Z,16.02
2019-04-14T09:33:21.387Z,16.02
2019-04-14T09:34:21.394Z,16.11
2019-04-14T09:35:21.397Z,16.21
2019-04-14T09:36:21.392Z,16.11
2019-04-14T09:37:21.395Z,16.31
2019-04-14T09:38:21.405Z,16.31
2019-04-14T09:39:21.405Z,16.21
2019-04-14T09:40:21.401Z,16.11
2019-04-14T09:41:21.407Z,16.11
2019-04-14T09:42:21.466Z,16.31
2019-04-14T09:43:21.412Z,16.31
2019-04-14T09:44:21.414Z,16.21
2019-04-14T09:45:21.417Z,16.31
2019-04-14T09:46:21.419Z,16.41
2019-04-14T09:47:21.420Z,16.41
2019-04-14T09:48:21.422Z,16.21
2019-04-14T09:49:21.426Z,16.21
2019-04-14T09:50:21.430Z,16.21
2019-04-14T09:51:21.432Z,16.31
2019-04-14T09:52:21.433Z,16.21
2019-04-14T09:53:21.439Z,16.31
2019-04-14T09:54:21.438Z,16.41
2019-04-14T09:55:23.539Z,16.41
2019-04-14T09:56:21.442Z,16.31
2019-04-14T09:57:21.445Z,16.11
2019-04-14T09:58:21.445Z,16.31
2019-04-14T09:59:21.449Z,16.31
2019-04-14T10:00:21.452Z,16.41
2019-04-14T10:01:21.460Z,16.41
2019-04-14T10:02:21.465Z,16.41
2019-04-14T10:03:21.465Z,16.02
2019-04-14T10:04:21.466Z,16.11
2019-04-14T10:05:21.464Z,16.41
2019-04-14T10:06:21.480Z,16.41
2019-04-14T10:07:21.476Z,16.11
2019-04-14T10:08:21.476Z,16.21
2019-04-14T10:09:21.478Z,16.11
2019-04-14T10:10:21.479Z,16.01
2019-04-14T10:11:21.481Z,16.21
2019-04-14T10:12:21.482Z,16.41
2019-04-14T10:13:21.490Z,16.31
2019-04-14T10:14:21.489Z,16.41
2019-04-14T10:15:21.495Z,16.31
2019-04-14T10:16:21.490Z,16.31
2019-04-14T10:17:21.494Z,16.11
2019-04-14T10:18:21.497Z,16.39
2019-04-14T10:19:21.500Z,16.39
2019-04-14T10:20:21.501Z,16.31
2019-04-14T10:21:21.505Z,16.31
2019-04-14T10:22:33.144Z,16.41
2019-04-14T10:23:21.508Z,16.21
2019-04-14T10:24:21.511Z,16.31
2019-04-14T10:25:21.515Z,16.39
2019-04-14T10:26:21.518Z,16.31
2019-04-14T10:27:21.523Z,16.41
2019-04-14T10:28:21.523Z,16.11
2019-04-14T10:29:21.526Z,16.21
2019-04-14T10:30:21.527Z,16.11
2019-04-14T10:31:21.530Z,16.11
2019-04-14T10:32:21.534Z,16.21
2019-04-14T10:33:21.536Z,16.21
2019-04-14T10:34:21.537Z,16.21
2019-04-14T10:35:21.546Z,16.11
2019-04-14T10:36:21.542Z,16.21
2019-04-14T10:37:21.547Z,16.02
2019-04-14T10:38:21.546Z,16.41
2019-04-14T10:39:21.549Z,16.11
2019-04-14T10:40:21.552Z,16.31
2019-04-14T10:41:21.555Z,16.41
2019-04-14T10:42:21.557Z,16.31
2019-04-14T10:43:21.559Z,16.41
2019-04-14T10:44:21.560Z,16.02
2019-04-14T10:45:21.564Z,16.31
2019-04-14T10:46:21.571Z,16.31
2019-04-14T10:47:21.568Z,16.41
2019-04-14T10:48:21.572Z,16.41
2019-04-14T10:49:21.582Z,16.41
2019-04-14T10:50:30.848Z,16.31
2019-04-14T10:51:29.879Z,16.11
2019-04-14T10:52:21.580Z,16.21
2019-04-14T10:53:21.584Z,16.31
2019-04-14T10:54:21.589Z,16.31
2019-04-14T10:55:21.588Z,16.11
2019-04-14T10:56:21.588Z,16.11
2019-04-14T10:57:21.596Z,16.21
2019-04-14T10:58:21.600Z,16.41
2019-04-14T10:59:21.598Z,16.21
2019-04-14T11:00:21.601Z,16.21
2019-04-14T11:01:21.603Z,16.02
2019-04-14T11:02:21.607Z,16.11
2019-04-14T11:03:21.609Z,16.02
2019-04-14T11:04:21.610Z,16.21
2019-04-14T11:05:21.617Z,16.11
2019-04-14T11:06:21.616Z,16.11
2019-04-14T11:07:21.617Z,16.11
2019-04-14T11:08:21.621Z,16.31
2019-04-14T11:09:21.623Z,16.11
2019-04-14T11:10:21.627Z,16.11
2019-04-14T11:11:21.726Z,16.11
2019-04-14T11:12:21.629Z,16.21
2019-04-14T11:13:21.633Z,16.31
2019-04-14T11:14:21.636Z,16.31
2019-04-14T11:15:21.637Z,16.21
2019-04-14T11:16:21.639Z,16.21
2019-04-14T11:17:21.649Z,16.20
2019-04-14T11:18:21.645Z,16.21
2019-04-14T11:19:21.646Z,16.31
2019-04-14T11:20:21.650Z,16.41
2019-04-14T11:21:21.654Z,16.11
2019-04-14T11:22:21.654Z,16.31
2019-04-14T11:23:21.657Z,16.11
2019-04-14T11:24:23.996Z,16.21
2019-04-14T11:25:21.666Z,16.02
2019-04-14T11:26:21.664Z,16.11
2019-04-14T11:27:21.678Z,16.21
2019-04-14T11:28:21.673Z,16.31
2019-04-14T11:29:21.692Z,16.11
2019-04-14T11:30:21.676Z,16.11
2019-04-14T11:31:21.677Z,16.02
2019-04-14T11:32:21.679Z,16.11
2019-04-14T11:33:21.681Z,16.21
2019-04-14T11:34:21.687Z,16.41
2019-04-14T11:35:21.694Z,16.41
2019-04-14T11:36:21.690Z,16.02
2019-04-14T11:37:21.691Z,16.11
2019-04-14T11:38:21.703Z,16.41
2019-04-14T11:39:21.703Z,16.01
2019-04-14T11:40:21.705Z,16.31
2019-04-14T11:41:21.712Z,16.11
2019-04-14T11:42:21.717Z,16.11
2019-04-14T11:43:21.706Z,16.11
2019-04-14T11:44:21.733Z,16.11
2019-04-14T11:45:21.716Z,16.02
2019-04-14T11:46:21.712Z,16.11
2019-04-14T11:47:21.716Z,16.11
2019-04-14T11:48:21.725Z,16.21
2019-04-14T11:49:21.726Z,16.11
2019-04-14T11:50:21.723Z,16.21
2019-04-14T11:51:21.733Z,16.11
2019-04-14T11:52:21.739Z,16.21
2019-04-14T11:53:21.735Z,16.11
2019-04-14T11:54:21.735Z,16.11
2019-04-14T11:55:21.803Z,16.21
2019-04-14T11:56:21.739Z,16.31
2019-04-14T11:57:21.741Z,16.11
2019-04-14T11:58:21.750Z,16.02
2019-04-14T11:59:21.749Z,16.21
2019-04-14T12:00:21.749Z,16.31
2019-04-14T12:01:21.750Z,16.31
2019-04-14T12:02:21.754Z,16.11
2019-04-14T12:03:21.755Z,16.21
2019-04-14T12:04:21.758Z,16.21
2019-04-14T12:05:21.761Z,16.31
2019-04-14T12:06:21.763Z,16.21
2019-04-14T12:07:21.766Z,16.21
2019-04-14T12:08:21.767Z,16.31
2019-04-14T12:09:21.770Z,16.21
2019-04-14T12:10:21.774Z,16.41
2019-04-14T12:11:21.777Z,16.20
2019-04-14T12:12:21.781Z,16.41
2019-04-14T12:13:21.780Z,16.41
2019-04-14T12:14:21.784Z,16.39
2019-04-14T12:15:21.785Z,16.41
2019-04-14T12:16:21.787Z,16.39
2019-04-14T12:17:21.791Z,16.41
2019-04-14T12:18:21.793Z,16.50
2019-04-14T12:19:21.796Z,16.31
2019-04-14T12:20:21.804Z,16.31
2019-04-14T12:21:21.805Z,16.41
2019-04-14T12:22:21.806Z,16.39
2019-04-14T12:23:21.807Z,16.41
2019-04-14T12:24:21.808Z,16.41
2019-04-14T12:25:21.810Z,16.31
2019-04-14T12:26:21.813Z,16.41
2019-04-14T12:27:21.825Z,16.41
2019-04-14T12:28:21.967Z,16.41
2019-04-14T12:29:21.819Z,16.39
2019-04-14T12:30:22.397Z,16.31
2019-04-14T12:31:21.906Z,16.41
2019-04-14T12:32:21.827Z,16.30
2019-04-14T12:33:21.831Z,16.41
2019-04-14T12:34:21.842Z,16.49
2019-04-14T12:35:21.833Z,16.31
2019-04-14T12:36:21.835Z,16.41
2019-04-14T12:37:21.840Z,16.31
2019-04-14T12:38:21.848Z,16.59
2019-04-14T12:39:21.845Z,16.41
2019-04-14T12:40:21.847Z,16.41
2019-04-14T12:41:22.075Z,16.60
2019-04-14T12:42:21.853Z,16.39
2019-04-14T12:43:21.856Z,16.31
2019-04-14T12:44:21.856Z,16.69
2019-04-14T12:45:21.860Z,16.50
2019-04-14T12:46:21.862Z,16.60
2019-04-14T12:47:21.864Z,16.50
2019-04-14T12:48:21.867Z,16.50
2019-04-14T12:49:21.869Z,16.50
2019-04-14T12:50:21.872Z,16.50
2019-04-14T12:51:21.872Z,16.50
2019-04-14T12:52:22.209Z,16.50
2019-04-14T12:53:21.879Z,16.50
2019-04-14T12:54:21.889Z,16.50
2019-04-14T12:55:21.891Z,16.50
2019-04-14T12:56:21.887Z,16.50
2019-04-14T12:57:21.891Z,16.50
2019-04-14T12:58:21.890Z,16.50
2019-04-14T12:59:23.373Z,16.69
2019-04-14T13:00:21.896Z,16.50
2019-04-14T13:01:21.896Z,16.69
2019-04-14T13:02:21.901Z,16.39
2019-04-14T13:03:21.904Z,16.50
2019-04-14T13:04:21.905Z,16.60
2019-04-14T13:05:21.909Z,16.60
2019-04-14T13:06:21.910Z,16.49
2019-04-14T13:07:21.912Z,16.50
2019-04-14T13:08:22.005Z,16.60